createdAt,value
2023-05-01T00:00:33.474Z,62.71
2023-05-01T00:03:01.158Z,62.59
2023-05-01T00:05:28.937Z,62.85
2023-05-01T00:07:56.534Z,62.96
2023-05-01T00:10:24.506Z,62.56
2023-05-01T00:12:52.292Z,62.52
2023-05-01T00:15:19.900Z,62.65
2023-05-01T00:17:47.523Z,62.82
2023-05-01T00:20:15.658Z,62.62
2023-05-01T00:22:43.626Z,62.68
2023-05-01T00:25:12.167Z,62.63
2023-05-01T00:27:39.820Z,62.73
2023-05-01T00:30:07.594Z,62.58
2023-05-01T00:32:35.655Z,62.57
2023-05-01T00:35:04.103Z,62.76
2023-05-01T00:37:32.466Z,62.64
2023-05-01T00:40:00.068Z,62.74
2023-05-01T00:42:27.726Z,63.07
2023-05-01T00:44:55.318Z,63.02
2023-05-01T00:47:23.323Z,63.04
2023-05-01T00:49:51.484Z,62.88
2023-05-01T00:52:19.109Z,62.78
2023-05-01T00:54:51.996Z,62.69
2023-05-01T00:57:19.665Z,62.46
2023-05-01T00:59:47.611Z,63.07
2023-05-01T01:02:15.253Z,63.39
2023-05-01T01:04:43.157Z,63.28
2023-05-01T01:07:10.730Z,63.26
2023-05-01T01:09:38.320Z,63.46
2023-05-01T01:12:06.281Z,63.49
2023-05-01T01:14:34.436Z,63.71
2023-05-01T01:17:02.127Z,63.70
2023-05-01T01:19:29.731Z,63.70
2023-05-01T01:21:57.298Z,63.74
2023-05-01T01:24:25.267Z,63.60
2023-05-01T01:26:54.203Z,63.84
2023-05-01T01:29:21.821Z,64.00
2023-05-01T01:31:49.396Z,63.57
2023-05-01T01:34:17.056Z,64.11
2023-05-01T01:36:45.018Z,64.12
2023-05-01T01:39:12.716Z,63.92
2023-05-01T01:41:40.363Z,64.07
2023-05-01T01:44:07.994Z,64.40
2023-05-01T01:46:35.796Z,64.22
2023-05-01T01:49:04.639Z,64.76
2023-05-01T01:51:32.424Z,64.29
2023-05-01T01:53:59.990Z,64.75
2023-05-01T01:56:28.057Z,64.20
2023-05-01T01:58:55.624Z,63.77
2023-05-01T02:01:23.582Z,64.37
2023-05-01T02:03:51.360Z,63.88
2023-05-01T02:06:19.013Z,64.57
2023-05-01T02:08:46.583Z,64.24
2023-05-01T02:11:14.711Z,64.49
2023-05-01T02:13:42.656Z,64.33
2023-05-01T02:16:10.328Z,64.25
2023-05-01T02:18:37.946Z,64.48
2023-05-01T02:21:05.521Z,64.73
2023-05-01T02:23:33.661Z,65.08
2023-05-01T02:26:01.690Z,64.83
2023-05-01T02:28:29.244Z,64.92
2023-05-01T02:30:57.453Z,64.61
2023-05-01T02:33:25.946Z,65.01
2023-05-01T02:35:53.528Z,64.80
2023-05-01T02:38:21.780Z,64.85
2023-05-01T02:40:49.414Z,64.88
2023-05-01T02:43:17.359Z,64.88
2023-05-01T02:45:44.951Z,64.57
2023-05-01T02:48:12.680Z,65.12
2023-05-01T02:50:41.672Z,64.70
2023-05-01T02:53:09.828Z,64.79
2023-05-01T02:55:37.714Z,65.04
2023-05-01T02:58:05.281Z,64.74
2023-05-01T03:00:32.905Z,64.82
2023-05-01T03:03:00.960Z,65.10
2023-05-01T03:05:28.543Z,64.78
2023-05-01T03:07:56.108Z,65.33
2023-05-01T03:10:23.983Z,65.01
2023-05-01T03:12:51.504Z,65.08
2023-05-01T03:15:19.499Z,64.81
2023-05-01T03:17:47.984Z,65.00
2023-05-01T03:20:16.202Z,64.85
2023-05-01T03:22:44.224Z,64.95
2023-05-01T03:25:11.849Z,65.23
2023-05-01T03:27:39.783Z,64.74
2023-05-01T03:30:07.338Z,65.15
2023-05-01T03:32:34.949Z,65.12
2023-05-01T03:35:02.686Z,65.36
2023-05-01T03:37:30.456Z,65.40
2023-05-01T03:39:58.518Z,65.25
2023-05-01T03:42:26.339Z,65.35
2023-05-01T03:44:53.916Z,65.58
2023-05-01T03:47:21.580Z,65.27
2023-05-01T03:49:49.116Z,65.06
2023-05-01T03:52:17.094Z,65.01
2023-05-01T03:54:45.011Z,65.14
2023-05-01T03:57:12.569Z,65.63
2023-05-01T03:59:40.172Z,65.20
2023-05-01T04:02:08.109Z,65.35
2023-05-01T04:04:36.472Z,65.38
2023-05-01T04:07:04.111Z,65.54
2023-05-01T04:09:31.709Z,65.34
2023-05-01T04:11:59.224Z,65.42
2023-05-01T04:14:26.781Z,65.12
2023-05-01T04:16:54.724Z,65.21
2023-05-01T04:19:22.597Z,65.31
2023-05-01T04:21:50.131Z,64.76
2023-05-01T04:24:17.989Z,64.72
2023-05-01T04:26:45.558Z,65.04
2023-05-01T04:29:13.528Z,64.59
2023-05-01T04:31:41.932Z,64.12
2023-05-01T04:34:09.525Z,64.50
2023-05-01T04:36:37.241Z,64.51
2023-05-01T04:39:05.548Z,64.48
2023-05-01T04:41:33.464Z,64.03
2023-05-01T04:44:01.108Z,64.84
2023-05-01T04:46:29.112Z,64.34
2023-05-01T04:48:56.692Z,64.22
2023-05-01T04:51:24.220Z,64.70
2023-05-01T04:53:52.164Z,64.22
2023-05-01T04:56:20.149Z,64.03
2023-05-01T04:58:47.910Z,64.32
2023-05-01T05:01:15.640Z,64.41
2023-05-01T05:03:43.419Z,64.08
2023-05-01T05:06:11.820Z,64.06
2023-05-01T05:08:39.401Z,63.45
2023-05-01T05:11:07.351Z,64.23
2023-05-01T05:13:34.976Z,63.51
2023-05-01T05:16:02.571Z,63.50
2023-05-01T05:18:30.596Z,63.69
2023-05-01T05:20:58.179Z,63.58
2023-05-01T05:23:25.796Z,63.23
2023-05-01T05:25:53.375Z,63.15
2023-05-01T05:28:24.182Z,63.05
2023-05-01T05:30:52.128Z,62.90
2023-05-01T05:33:19.724Z,62.36
2023-05-01T05:35:47.536Z,62.42
2023-05-01T05:38:15.813Z,62.03
2023-05-01T05:40:43.365Z,61.53
2023-05-01T05:43:11.820Z,62.25
2023-05-01T05:45:39.601Z,61.34
2023-05-01T05:48:07.264Z,61.00
2023-05-01T05:50:35.144Z,60.98
2023-05-01T05:53:02.766Z,60.81
2023-05-01T05:55:30.711Z,60.08
2023-05-01T05:57:58.528Z,60.18
2023-05-01T06:00:26.124Z,59.27
2023-05-01T06:02:53.774Z,59.33
2023-05-01T06:05:21.427Z,58.54
2023-05-01T06:07:49.411Z,58.40
2023-05-01T06:10:17.785Z,58.39
2023-05-01T06:12:48.210Z,57.85
2023-05-01T06:15:24.889Z,57.84
2023-05-01T06:17:52.937Z,57.19
2023-05-01T06:20:20.883Z,57.08
2023-05-01T06:22:48.524Z,57.18
2023-05-01T06:25:16.150Z,56.92
2023-05-01T06:27:43.691Z,57.16
2023-05-01T06:30:11.663Z,56.21
2023-05-01T06:32:39.269Z,56.73
2023-05-01T06:35:06.830Z,56.33
2023-05-01T06:37:34.502Z,56.93
2023-05-01T06:40:02.057Z,56.91
2023-05-01T06:42:30.004Z,57.54
2023-05-01T06:44:57.715Z,57.39
2023-05-01T06:47:25.423Z,57.76
2023-05-01T06:49:53.066Z,57.53
2023-05-01T06:52:20.679Z,57.56
2023-05-01T06:54:48.950Z,57.02
2023-05-01T06:57:16.851Z,56.88
2023-05-01T06:59:44.501Z,57.41
2023-05-01T07:02:12.241Z,57.27
2023-05-01T07:04:39.853Z,56.99
2023-05-01T07:07:07.861Z,57.05
2023-05-01T07:09:36.124Z,56.48
2023-05-01T07:12:03.810Z,56.29
2023-05-01T07:14:31.426Z,56.04
2023-05-01T07:16:59.546Z,56.09
2023-05-01T07:19:27.556Z,56.35
2023-05-01T07:21:55.308Z,55.83
2023-05-01T07:24:22.913Z,55.72
2023-05-01T07:26:50.535Z,55.14
2023-05-01T07:29:18.220Z,55.92
2023-05-01T07:31:46.260Z,55.56
2023-05-01T07:34:14.003Z,55.39
2023-05-01T07:36:41.761Z,55.13
2023-05-01T07:39:09.445Z,55.14
2023-05-01T07:41:37.057Z,54.74
2023-05-01T07:44:05.118Z,54.61
2023-05-01T07:46:33.675Z,54.38
2023-05-01T07:49:01.599Z,54.01
2023-05-01T07:51:29.248Z,54.20
2023-05-01T07:53:56.963Z,53.48
2023-05-01T07:56:25.147Z,53.65
2023-05-01T07:58:53.625Z,53.40
2023-05-01T08:01:21.268Z,53.55
2023-05-01T08:03:50.908Z,52.92
2023-05-01T08:06:18.885Z,52.65
2023-05-01T08:08:46.901Z,52.31
2023-05-01T08:11:14.619Z,51.90
2023-05-01T08:13:42.317Z,51.80
2023-05-01T08:16:10.230Z,51.76
2023-05-01T08:18:37.892Z,51.84
2023-05-01T08:21:05.902Z,51.34
2023-05-01T08:23:33.511Z,51.85
2023-05-01T08:26:01.355Z,51.95
2023-05-01T08:28:29.088Z,51.90
2023-05-01T08:30:56.813Z,51.39
2023-05-01T08:33:24.923Z,51.38
2023-05-01T08:35:52.763Z,50.63
2023-05-01T08:38:20.581Z,50.67
2023-05-01T08:40:48.540Z,50.32
2023-05-01T08:43:16.440Z,50.55
2023-05-01T08:45:44.167Z,50.36
2023-05-01T08:48:12.161Z,49.95
2023-05-01T08:50:40.015Z,50.18
2023-05-01T08:53:07.813Z,49.80
2023-05-01T08:55:36.337Z,49.76
2023-05-01T08:58:04.386Z,49.24
2023-05-01T09:00:34.352Z,49.02
2023-05-01T09:03:02.491Z,48.93
2023-05-01T09:05:30.603Z,48.64
2023-05-01T09:07:58.487Z,48.72
2023-05-01T09:10:27.050Z,48.48
2023-05-01T09:12:54.807Z,48.54
2023-05-01T09:15:22.558Z,48.76
2023-05-01T09:17:50.315Z,48.41
2023-05-01T09:20:18.290Z,49.11
2023-05-01T09:22:46.454Z,48.89
2023-05-01T09:25:15.766Z,49.00
2023-05-01T09:27:43.507Z,48.59
2023-05-01T09:30:11.267Z,49.13
2023-05-01T09:32:40.208Z,49.03
2023-05-01T09:35:10.056Z,48.76
2023-05-01T09:37:37.801Z,48.95
2023-05-01T09:40:05.606Z,48.91
2023-05-01T09:42:33.833Z,48.75
2023-05-01T09:45:02.019Z,48.27
2023-05-01T09:47:30.888Z,48.11
2023-05-01T09:49:59.812Z,47.27
2023-05-01T09:52:27.911Z,46.71
2023-05-01T09:54:55.772Z,45.92
2023-05-01T09:57:23.770Z,45.00
2023-05-01T09:59:51.903Z,44.52
2023-05-01T10:02:19.948Z,43.36
2023-05-01T10:04:48.904Z,42.79
2023-05-01T10:07:16.678Z,42.79
2023-05-01T10:09:44.348Z,42.59
2023-05-01T10:12:12.831Z,41.66
2023-05-01T10:14:40.622Z,42.17
2023-05-01T10:17:08.492Z,41.51
2023-05-01T10:19:36.357Z,42.53
2023-05-01T10:22:04.110Z,43.05
2023-05-01T10:24:32.105Z,44.41
2023-05-01T10:27:00.049Z,44.60
2023-05-01T10:29:27.842Z,45.85
2023-05-01T10:31:56.003Z,46.16
2023-05-01T10:34:25.488Z,46.32
2023-05-01T10:36:55.520Z,46.08
2023-05-01T10:39:23.492Z,46.54
2023-05-01T10:41:51.274Z,46.56
2023-05-01T10:44:19.129Z,46.97
2023-05-01T10:46:47.080Z,46.80
2023-05-01T10:49:15.677Z,47.52
2023-05-01T10:51:43.842Z,48.18
2023-05-01T10:54:11.960Z,48.04
2023-05-01T10:56:39.863Z,47.60
2023-05-01T10:59:07.703Z,47.73
2023-05-01T11:01:36.066Z,47.58
2023-05-01T11:04:04.470Z,47.81
2023-05-01T11:06:32.459Z,48.21
2023-05-01T11:09:00.286Z,48.08
2023-05-01T11:11:28.096Z,48.36
2023-05-01T11:13:56.314Z,47.76
2023-05-01T11:16:24.861Z,48.18
2023-05-01T11:18:52.693Z,48.02
2023-05-01T11:21:20.915Z,47.55
2023-05-01T11:23:48.712Z,47.21
2023-05-01T11:26:17.071Z,46.81
2023-05-01T11:28:45.253Z,47.35
2023-05-01T11:31:13.036Z,47.17
2023-05-01T11:33:41.539Z,46.92
2023-05-01T11:36:09.348Z,47.34
2023-05-01T11:38:37.469Z,46.97
2023-05-01T11:41:05.954Z,47.44
2023-05-01T11:43:34.018Z,47.65
2023-05-01T11:46:04.809Z,47.42
2023-05-01T11:48:32.748Z,47.78
2023-05-01T11:51:01.011Z,48.04
2023-05-01T11:53:28.932Z,47.87
2023-05-01T11:55:57.142Z,48.44
2023-05-01T11:58:25.304Z,48.76
2023-05-01T12:00:53.162Z,49.24
2023-05-01T12:03:21.488Z,49.22
2023-05-01T12:05:49.407Z,49.25
2023-05-01T12:08:18.842Z,49.27
2023-05-01T12:10:46.801Z,49.00
2023-05-01T12:13:14.602Z,49.04
2023-05-01T12:15:42.714Z,49.57
2023-05-01T12:18:10.772Z,49.06
2023-05-01T12:20:38.688Z,48.98
2023-05-01T12:23:06.777Z,49.26
2023-05-01T12:25:35.232Z,48.81
2023-05-01T12:28:03.335Z,49.03
2023-05-01T12:30:31.342Z,48.87
2023-05-01T12:32:59.149Z,49.43
2023-05-01T12:35:27.057Z,49.61
2023-05-01T12:37:54.977Z,49.40
2023-05-01T12:40:23.871Z,49.46
2023-05-01T12:42:51.706Z,49.91
2023-05-01T12:45:19.541Z,49.30
2023-05-01T12:47:47.561Z,49.89
2023-05-01T12:50:15.309Z,49.72
2023-05-01T12:52:43.520Z,49.58
2023-05-01T12:55:12.793Z,49.94
2023-05-01T12:57:40.544Z,49.56
2023-05-01T13:00:10.860Z,48.85
2023-05-01T13:02:39.063Z,48.82
2023-05-01T13:05:07.478Z,48.72
2023-05-01T13:07:35.861Z,48.37
2023-05-01T13:10:04.231Z,47.88
2023-05-01T13:12:32.726Z,46.77
2023-05-01T13:15:00.723Z,44.78
2023-05-01T13:17:29.397Z,44.49
2023-05-01T13:19:58.082Z,42.96
2023-05-01T13:22:26.283Z,41.82
2023-05-01T13:24:54.973Z,40.30
2023-05-01T13:27:23.028Z,40.15
2023-05-01T13:29:51.300Z,39.84
2023-05-01T13:32:19.287Z,40.25
2023-05-01T13:34:47.430Z,39.94
2023-05-01T13:37:15.288Z,40.05
2023-05-01T13:39:43.246Z,41.46
2023-05-01T13:42:11.639Z,42.49
2023-05-01T13:44:39.587Z,43.26
2023-05-01T13:47:07.738Z,44.01
2023-05-01T13:49:35.462Z,45.56
2023-05-01T13:52:03.493Z,45.93
2023-05-01T13:54:31.471Z,46.34
2023-05-01T13:56:59.699Z,46.44
2023-05-01T13:59:27.558Z,46.67
2023-05-01T14:01:55.505Z,47.18
2023-05-01T14:04:24.079Z,47.86
2023-05-01T14:06:52.447Z,47.67
2023-05-01T14:09:20.601Z,47.87
2023-05-01T14:11:48.352Z,48.38
2023-05-01T14:14:16.365Z,48.46
2023-05-01T14:16:45.820Z,48.67
2023-05-01T14:19:14.257Z,48.67
2023-05-01T14:21:42.030Z,49.11
2023-05-01T14:24:10.164Z,48.96
2023-05-01T14:26:39.587Z,49.32
2023-05-01T14:29:09.039Z,49.08
2023-05-01T14:31:37.686Z,49.27
2023-05-01T14:34:06.510Z,49.31
2023-05-01T14:36:34.223Z,49.28
2023-05-01T14:39:02.223Z,49.53
2023-05-01T14:41:30.352Z,49.19
2023-05-01T14:43:58.725Z,49.50
2023-05-01T14:46:27.048Z,49.44
2023-05-01T14:48:55.019Z,49.73
2023-05-01T14:51:22.958Z,49.67
2023-05-01T14:53:51.088Z,49.50
2023-05-01T14:56:19.413Z,49.06
2023-05-01T14:58:47.793Z,49.46
2023-05-01T15:01:15.831Z,49.40
2023-05-01T15:03:44.241Z,49.51
2023-05-01T15:06:12.266Z,48.86
2023-05-01T15:08:40.830Z,49.13
2023-05-01T15:11:09.045Z,49.08
2023-05-01T15:13:37.092Z,48.96
2023-05-01T15:16:05.140Z,48.95
2023-05-01T15:18:32.929Z,48.16
2023-05-01T15:21:01.135Z,46.83
2023-05-01T15:23:29.359Z,43.90
2023-05-01T15:25:57.385Z,41.50
2023-05-01T15:28:25.453Z,42.35
2023-05-01T15:30:53.251Z,42.19
2023-05-01T15:33:21.575Z,42.93
2023-05-01T15:35:51.342Z,44.05
2023-05-01T15:38:20.807Z,43.93
2023-05-01T15:40:50.185Z,44.84
2023-05-01T15:43:18.068Z,45.37
2023-05-01T15:45:46.795Z,45.24
2023-05-01T15:48:14.940Z,46.08
2023-05-01T15:50:42.761Z,46.31
2023-05-01T15:53:10.534Z,46.42
2023-05-01T15:55:38.306Z,46.67
2023-05-01T15:58:06.954Z,47.54
2023-05-01T16:00:36.198Z,47.38
2023-05-01T16:03:04.814Z,47.95
2023-05-01T16:05:32.862Z,47.65
2023-05-01T16:08:00.780Z,47.94
2023-05-01T16:10:28.889Z,47.96
2023-05-01T16:12:57.063Z,48.46
2023-05-01T16:15:25.027Z,49.06
2023-05-01T16:17:55.031Z,49.29
2023-05-01T16:20:23.225Z,49.71
2023-05-01T16:22:52.677Z,50.26
2023-05-01T16:25:21.232Z,51.50
2023-05-01T16:27:49.072Z,51.78
2023-05-01T16:30:16.952Z,52.15
2023-05-01T16:32:44.838Z,53.03
2023-05-01T16:35:13.010Z,54.17
2023-05-01T16:37:41.683Z,54.48
2023-05-01T16:40:09.597Z,55.85
2023-05-01T16:42:38.725Z,55.92
2023-05-01T16:45:08.684Z,56.41
2023-05-01T16:47:37.044Z,57.08
2023-05-01T16:50:05.092Z,57.42
2023-05-01T16:52:33.066Z,57.81
2023-05-01T16:55:01.932Z,58.21
2023-05-01T16:57:29.775Z,59.14
2023-05-01T16:59:58.472Z,59.09
2023-05-01T17:02:26.763Z,59.74
2023-05-01T17:04:54.926Z,59.88
2023-05-01T17:07:22.916Z,59.38
2023-05-01T17:09:50.774Z,59.39
2023-05-01T17:12:18.557Z,59.38
2023-05-01T17:14:46.464Z,59.67
2023-05-01T17:17:14.177Z,59.63
2023-05-01T17:19:42.061Z,59.33
2023-05-01T17:22:10.024Z,59.51
2023-05-01T17:24:38.187Z,59.00
2023-05-01T17:27:07.949Z,59.26
2023-05-01T17:29:35.755Z,58.88
2023-05-01T17:32:04.728Z,59.07
2023-05-01T17:34:32.560Z,59.44
2023-05-01T17:37:01.178Z,58.99
2023-05-01T17:39:29.513Z,58.68
2023-05-01T17:41:57.429Z,58.55
2023-05-01T17:44:25.375Z,58.49
2023-05-01T17:46:53.178Z,58.47
2023-05-01T17:49:21.914Z,58.62
2023-05-01T17:51:49.916Z,58.09
2023-05-01T17:54:17.916Z,58.22
2023-05-01T17:56:46.087Z,58.72
2023-05-01T17:59:14.143Z,58.22
2023-05-01T18:01:42.497Z,58.68
2023-05-01T18:04:11.054Z,58.20
2023-05-01T18:06:39.220Z,58.37
2023-05-01T18:09:07.912Z,58.35
2023-05-01T18:11:35.818Z,58.93
2023-05-01T18:14:05.133Z,58.78
2023-05-01T18:16:32.914Z,59.22
2023-05-01T18:19:00.930Z,59.11
2023-05-01T18:21:28.898Z,59.06
2023-05-01T18:23:56.665Z,59.00
2023-05-01T18:26:26.750Z,59.08
2023-05-01T18:28:55.368Z,59.74
2023-05-01T18:31:23.402Z,59.71
2023-05-01T18:33:51.619Z,59.28
2023-05-01T18:36:19.551Z,59.25
2023-05-01T18:38:47.566Z,59.89
2023-05-01T18:41:15.802Z,59.56
2023-05-01T18:43:43.661Z,59.52
2023-05-01T18:46:11.558Z,59.77
2023-05-01T18:48:39.574Z,59.85
2023-05-01T18:51:09.373Z,59.82
2023-05-01T18:53:38.081Z,59.77
2023-05-01T18:56:06.241Z,60.00
2023-05-01T18:58:34.079Z,59.59
2023-05-01T19:01:02.150Z,60.39
2023-05-01T19:03:30.547Z,60.42
2023-05-01T19:05:59.183Z,60.19
2023-05-01T19:08:26.948Z,60.91
2023-05-01T19:10:54.850Z,61.03
2023-05-01T19:13:22.794Z,60.95
2023-05-01T19:15:50.683Z,61.08
2023-05-01T19:18:20.010Z,60.78
2023-05-01T19:20:48.050Z,61.16
2023-05-01T19:23:15.844Z,61.04
2023-05-01T19:25:43.715Z,61.59
2023-05-01T19:28:11.660Z,61.39
2023-05-01T19:30:39.406Z,61.02
2023-05-01T19:33:07.267Z,61.67
2023-05-01T19:35:35.860Z,61.44
2023-05-01T19:38:03.672Z,61.67
2023-05-01T19:40:31.802Z,61.05
2023-05-01T19:42:59.756Z,61.22
2023-05-01T19:45:27.629Z,61.60
2023-05-01T19:47:55.650Z,61.53
2023-05-01T19:50:23.706Z,61.73
2023-05-01T19:52:52.026Z,61.59
2023-05-01T19:55:20.295Z,61.07
2023-05-01T19:57:48.283Z,60.82
2023-05-01T20:00:16.206Z,61.45
2023-05-01T20:02:44.559Z,61.16
2023-05-01T20:05:13.733Z,61.53
2023-05-01T20:07:41.850Z,61.04
2023-05-01T20:10:09.908Z,61.41
2023-05-01T20:12:38.562Z,61.25
2023-05-01T20:15:06.444Z,61.60
2023-05-01T20:17:34.978Z,60.99
2023-05-01T20:20:03.447Z,61.09
2023-05-01T20:22:31.225Z,61.05
2023-05-01T20:25:00.670Z,61.16
2023-05-01T20:27:28.708Z,60.85
2023-05-01T20:29:57.522Z,60.62
2023-05-01T20:32:25.617Z,60.91
2023-05-01T20:34:55.614Z,60.47
2023-05-01T20:37:23.447Z,60.69
2023-05-01T20:39:51.184Z,60.79
2023-05-01T20:42:19.024Z,61.04
2023-05-01T20:44:46.864Z,61.06
2023-05-01T20:47:15.223Z,61.13
2023-05-01T20:49:43.054Z,61.27
2023-05-01T20:52:11.086Z,61.71
2023-05-01T20:54:39.546Z,61.85
2023-05-01T20:57:07.869Z,61.77
2023-05-01T20:59:35.730Z,61.26
2023-05-01T21:02:03.534Z,61.57
2023-05-01T21:04:31.503Z,61.48
2023-05-01T21:06:59.408Z,61.57
2023-05-01T21:09:27.468Z,61.58
2023-05-01T21:11:55.318Z,61.79
2023-05-01T21:14:23.137Z,61.42
2023-05-01T21:16:50.857Z,61.25
2023-05-01T21:19:19.034Z,61.63
2023-05-01T21:21:47.066Z,61.06
2023-05-01T21:24:14.890Z,61.77
2023-05-01T21:26:42.762Z,61.22
2023-05-01T21:29:10.702Z,61.07
2023-05-01T21:31:38.786Z,60.89
2023-05-01T21:34:07.095Z,61.03
2023-05-01T21:36:34.707Z,61.37
2023-05-01T21:39:02.469Z,60.65
2023-05-01T21:41:30.194Z,61.21
2023-05-01T21:43:58.258Z,61.11
2023-05-01T21:46:26.429Z,60.92
2023-05-01T21:48:54.157Z,61.12
2023-05-01T21:51:22.201Z,61.54
2023-05-01T21:53:50.035Z,60.80
2023-05-01T21:56:18.164Z,61.24
2023-05-01T21:58:46.292Z,60.64
2023-05-01T22:01:14.008Z,61.12
2023-05-01T22:03:42.744Z,61.17
2023-05-01T22:06:10.561Z,61.02
2023-05-01T22:08:38.558Z,60.97
2023-05-01T22:11:08.462Z,60.77
2023-05-01T22:13:36.614Z,61.02
2023-05-01T22:16:04.366Z,60.62
2023-05-01T22:18:32.272Z,61.23
2023-05-01T22:21:01.770Z,61.41
2023-05-01T22:23:29.694Z,60.84
2023-05-01T22:26:00.362Z,61.07
2023-05-01T22:28:27.996Z,61.31
2023-05-01T22:30:55.818Z,61.09
2023-05-01T22:33:23.850Z,61.09
2023-05-01T22:35:52.302Z,61.27
2023-05-01T22:38:19.947Z,61.47
2023-05-01T22:40:47.630Z,61.56
2023-05-01T22:43:15.575Z,61.86
2023-05-01T22:45:43.609Z,61.92
2023-05-01T22:48:12.246Z,61.87
2023-05-01T22:50:39.957Z,61.58
2023-05-01T22:53:07.698Z,62.25
2023-05-01T22:55:35.360Z,62.44
2023-05-01T22:58:03.593Z,62.01
2023-05-01T23:00:31.599Z,62.45
2023-05-01T23:02:59.357Z,62.27
2023-05-01T23:05:27.039Z,62.81
2023-05-01T23:07:54.587Z,62.79
2023-05-01T23:10:22.624Z,62.88
2023-05-01T23:12:50.735Z,63.05
2023-05-01T23:15:18.660Z,62.51
2023-05-01T23:17:46.381Z,62.87
2023-05-01T23:20:14.388Z,62.97
2023-05-01T23:22:42.337Z,63.14
2023-05-01T23:25:10.022Z,63.33
2023-05-01T23:27:39.353Z,63.47
2023-05-01T23:30:07.934Z,62.95
2023-05-01T23:32:35.653Z,62.71
2023-05-01T23:35:04.166Z,62.68
2023-05-01T23:37:31.801Z,63.18
2023-05-01T23:40:01.035Z,62.85
2023-05-01T23:42:28.843Z,62.91
2023-05-01T23:44:56.448Z,63.25
2023-05-01T23:47:24.451Z,63.46
2023-05-01T23:49:52.112Z,63.12
2023-05-01T23:52:19.711Z,63.10
2023-05-01T23:54:47.330Z,63.06
2023-05-01T23:57:14.878Z,63.26
2023-05-01T23:59:42.968Z,63.59
